sensor_id;sensor_type;location;lat;lon;timestamp;P1;P2;P0
74426;PMS7003;62859;53.906;27.430;2024-02-26T00:04:20;22.8;21.3;16.8
74426;PMS7003;62859;53.906;27.430;2024-02-26T00:10:02;17.7;15.3;9.7
74426;PMS7003;62859;53.906;27.430;2024-02-26T00:14:54;13.7;11;8
74426;PMS7003;62859;53.906;27.430;2024-02-26T00:19:46;14;13.8;10.3
74426;PMS7003;62859;53.906;27.430;2024-02-26T00:24:18;18.7;14.3;9.3
74426;PMS7003;62859;53.906;27.430;2024-02-26T00:29:54;14.7;13.7;9.7
74426;PMS7003;62859;53.906;27.430;2024-02-26T00:34:42;13.7;12.7;9.7
74426;PMS7003;62859;53.906;27.430;2024-02-26T00:40:04;16.7;14.7;9.3
74426;PMS7003;62859;53.906;27.430;2024-02-26T00:44:34;16.7;14.7;9.3
74426;PMS7003;62859;53.906;27.430;2024-02-26T00:49:54;18.3;14.3;10
74426;PMS7003;62859;53.906;27.430;2024-02-26T00:54:56;16.3;14;9.7
74426;PMS7003;62859;53.906;27.430;2024-02-26T00:59:26;14.8;12.8;9
74426;PMS7003;62859;53.906;27.430;2024-02-26T01:04:26;15.7;14.3;10.3
74426;PMS7003;62859;53.906;27.430;2024-02-26T01:09:36;16.3;15;10.7
74426;PMS7003;62859;53.906;27.430;2024-02-26T01:14:18;12.3;11.3;8.7
74426;PMS7003;62859;53.906;27.430;2024-02-26T01:19:18;18;15.8;10
74426;PMS7003;62859;53.906;27.430;2024-02-26T01:24:18;16.7;15.3;10.7
74426;PMS7003;62859;53.906;27.430;2024-02-26T01:29:18;14.7;14;8.3
74426;PMS7003;62859;53.906;27.430;2024-02-26T01:34:46;15;13.7;9.7
74426;PMS7003;62859;53.906;27.430;2024-02-26T01:39:46;12.8;12.3;8.8
74426;PMS7003;62859;53.906;27.430;2024-02-26T01:45:04;23.3;21.7;17
74426;PMS7003;62859;53.906;27.430;2024-02-26T01:49:46;23.3;21.7;17
74426;PMS7003;62859;53.906;27.430;2024-02-26T01:54:54;25.3;22;18.7
74426;PMS7003;62859;53.906;27.430;2024-02-26T02:00:04;20.3;20.3;16
74426;PMS7003;62859;53.906;27.430;2024-02-26T02:05:04;24.3;21.7;16.3
74426;PMS7003;62859;53.906;27.430;2024-02-26T02:09:50;24.3;21.7;16.3
74426;PMS7003;62859;53.906;27.430;2024-02-26T02:15:04;18.3;18;13.7
74426;PMS7003;62859;53.906;27.430;2024-02-26T02:19:26;18.3;18;13.7
74426;PMS7003;62859;53.906;27.430;2024-02-26T02:24:28;21;19;17
74426;PMS7003;62859;53.906;27.430;2024-02-26T02:30:04;26.5;25.5;21.3
74426;PMS7003;62859;53.906;27.430;2024-02-26T02:34:44;26.5;25.5;21.3
74426;PMS7003;62859;53.906;27.430;2024-02-26T02:39:18;18.3;17.3;15.3
74426;PMS7003;62859;53.906;27.430;2024-02-26T02:44:18;22;20.3;15.7
74426;PMS7003;62859;53.906;27.430;2024-02-26T02:49:34;22;21;14.7
74426;PMS7003;62859;53.906;27.430;2024-02-26T02:54:34;25.3;23.8;19.8
74426;PMS7003;62859;53.906;27.430;2024-02-26T02:59:54;18;17.3;15
74426;PMS7003;62859;53.906;27.430;2024-02-26T03:04:18;10;10;6.7
74426;PMS7003;62859;53.906;27.430;2024-02-26T03:09:54;13.3;11.7;7.7
74426;PMS7003;62859;53.906;27.430;2024-02-26T03:14:54;10.5;10;7.3
74426;PMS7003;62859;53.906;27.430;2024-02-26T03:20:04;19.3;17.7;15
74426;PMS7003;62859;53.906;27.430;2024-02-26T03:24:54;19.3;17.7;15
74426;PMS7003;62859;53.906;27.430;2024-02-26T03:29:54;24.3;23.3;19.7
74426;PMS7003;62859;53.906;27.430;2024-02-26T03:35:04;24.7;24;20.3
74426;PMS7003;62859;53.906;27.430;2024-02-26T03:40:04;20.7;18;15.7
74426;PMS7003;62859;53.906;27.430;2024-02-26T03:44:44;20.7;18;15.7
74426;PMS7003;62859;53.906;27.430;2024-02-26T03:49:18;21.3;20.3;16.3
74426;PMS7003;62859;53.906;27.430;2024-02-26T03:55:04;25.7;23;20.3
74426;PMS7003;62859;53.906;27.430;2024-02-26T03:59:46;25.7;23;20.3
74426;PMS7003;62859;53.906;27.430;2024-02-26T04:05:04;17.7;17.3;14.3
74426;PMS7003;62859;53.906;27.430;2024-02-26T04:09:34;17.7;17.3;14.3
74426;PMS7003;62859;53.906;27.430;2024-02-26T04:15:04;20.7;20;18.3
74426;PMS7003;62859;53.906;27.430;2024-02-26T04:19:18;20.7;20;18.3
74426;PMS7003;62859;53.906;27.430;2024-02-26T04:24:18;27.8;26.3;21.3
74426;PMS7003;62859;53.906;27.430;2024-02-26T04:29:36;33.3;30.3;26.3
74426;PMS7003;62859;53.906;27.430;2024-02-26T04:34:18;30.3;26.3;21.3
74426;PMS7003;62859;53.906;27.430;2024-02-26T04:39:18;19.7;19;17
74426;PMS7003;62859;53.906;27.430;2024-02-26T04:45:04;11.7;10;8
74426;PMS7003;62859;53.906;27.430;2024-02-26T04:49:54;11.7;10;8
74426;PMS7003;62859;53.906;27.430;2024-02-26T04:54:18;12;10.7;8.7
74426;PMS7003;62859;53.906;27.430;2024-02-26T05:00:04;20.5;18.8;17
74426;PMS7003;62859;53.906;27.430;2024-02-26T05:04:44;20.5;18.8;17
74426;PMS7003;62859;53.906;27.430;2024-02-26T05:09:44;11.7;11.3;9.3
74426;PMS7003;62859;53.906;27.430;2024-02-26T05:15:04;18.7;17.7;15.7
74426;PMS7003;62859;53.906;27.430;2024-02-26T05:19:44;18.7;17.7;15.7
74426;PMS7003;62859;53.906;27.430;2024-02-26T05:24:18;17;16.3;14.8
74426;PMS7003;62859;53.906;27.430;2024-02-26T05:29:46;12;11.7;9
74426;PMS7003;62859;53.906;27.430;2024-02-26T05:34:32;13;10.3;8.3
74426;PMS7003;62859;53.906;27.430;2024-02-26T05:39:43;12.8;11;9
74426;PMS7003;62859;53.906;27.430;2024-02-26T05:44:18;13.3;12;10
74426;PMS7003;62859;53.906;27.430;2024-02-26T05:49:46;17.3;16.3;12.7
74426;PMS7003;62859;53.906;27.430;2024-02-26T05:55:04;23.5;23.3;19
74426;PMS7003;62859;53.906;27.430;2024-02-26T05:59:36;23.5;23.3;19
74426;PMS7003;62859;53.906;27.430;2024-02-26T06:04:18;16.7;15.7;12.3
74426;PMS7003;62859;53.906;27.430;2024-02-26T06:09:18;18.7;17.7;12.7
74426;PMS7003;62859;53.906;27.430;2024-02-26T06:14:26;18.3;17.3;13.3
74426;PMS7003;62859;53.906;27.430;2024-02-26T06:19:18;19.8;17.5;13.8
74426;PMS7003;62859;53.906;27.430;2024-02-26T06:24:28;17.7;15.7;13.7
74426;PMS7003;62859;53.906;27.430;2024-02-26T06:29:36;15.7;15;11
74426;PMS7003;62859;53.906;27.430;2024-02-26T06:34:54;14.3;13;10.7
74426;PMS7003;62859;53.906;27.430;2024-02-26T06:40:02;16.3;14.5;11
74426;PMS7003;62859;53.906;27.430;2024-02-26T06:44:42;11.7;11.7;9.3
74426;PMS7003;62859;53.906;27.430;2024-02-26T06:49:34;12.7;12.3;8.7
74426;PMS7003;62859;53.906;27.430;2024-02-26T06:54:42;13.3;11.3;9
74426;PMS7003;62859;53.906;27.430;2024-02-26T06:59:34;12.8;11.3;8.8
74426;PMS7003;62859;53.906;27.430;2024-02-26T07:04:18;12.3;12;10.3
74426;PMS7003;62859;53.906;27.430;2024-02-26T07:09:34;12.3;12.3;10.3
74426;PMS7003;62859;53.906;27.430;2024-02-26T07:14:42;13.7;12.7;10
74426;PMS7003;62859;53.906;27.430;2024-02-26T07:19:34;13.3;11.8;8.5
74426;PMS7003;62859;53.906;27.430;2024-02-26T07:25:02;15.7;12.7;10
74426;PMS7003;62859;53.906;27.430;2024-02-26T07:30:02;13;12.3;10.7
74426;PMS7003;62859;53.906;27.430;2024-02-26T07:34:44;16;14.3;11.8
74426;PMS7003;62859;53.906;27.430;2024-02-26T07:39:18;16;14.3;12.3
74426;PMS7003;62859;53.906;27.430;2024-02-26T07:44:18;14;13;11.7
74426;PMS7003;62859;53.906;27.430;2024-02-26T07:49:26;16.3;16.3;14.7
74426;PMS7003;62859;53.906;27.430;2024-02-26T07:54:34;11.5;11.3;9.5
74426;PMS7003;62859;53.906;27.430;2024-02-26T07:59:42;11;11;9.3
74426;PMS7003;62859;53.906;27.430;2024-02-26T08:04:44;8.7;8.3;6.3
74426;PMS7003;62859;53.906;27.430;2024-02-26T08:09:54;9.3;7.3;5.7
74426;PMS7003;62859;53.906;27.430;2024-02-26T08:14:44;7.8;7.8;5.3
74426;PMS7003;62859;53.906;27.430;2024-02-26T08:20:02;10.7;9.7;7.7
74426;PMS7003;62859;53.906;27.430;2024-02-26T08:24:18;10.7;9.7;8.7
74426;PMS7003;62859;53.906;27.430;2024-02-26T08:29:54;10;9.7;8.3
74426;PMS7003;62859;53.906;27.430;2024-02-26T08:34:26;14;12.3;9.8
74426;PMS7003;62859;53.906;27.430;2024-02-26T08:39:46;13;12.3;10
74426;PMS7003;62859;53.906;27.430;2024-02-26T08:44:26;11.3;10.7;9.7
74426;PMS7003;62859;53.906;27.430;2024-02-26T08:49:46;11.3;11.3;9.3
74426;PMS7003;62859;53.906;27.430;2024-02-26T08:54:24;10;8.8;7.5
74426;PMS7003;62859;53.906;27.430;2024-02-26T08:59:52;15;10.7;8.3
74426;PMS7003;62859;53.906;27.430;2024-02-26T09:05:02;13;9.3;6.3
74426;PMS7003;62859;53.906;27.430;2024-02-26T09:09:32;11;10.7;8.7
74426;PMS7003;62859;53.906;27.430;2024-02-26T09:14:52;14.5;12.5;10
74426;PMS7003;62859;53.906;27.430;2024-02-26T09:19:36;13;12.3;9.7
74426;PMS7003;62859;53.906;27.430;2024-02-26T09:24:34;12.3;10.7;8.7
74426;PMS7003;62859;53.906;27.430;2024-02-26T09:29:20;14.3;12;9.3
74426;PMS7003;62859;53.906;27.430;2024-02-26T09:34:39;12.7;11;7.7
74426;PMS7003;62859;53.906;27.430;2024-02-26T09:39:28;11.7;9.3;7.7
74426;PMS7003;62859;53.906;27.430;2024-02-26T09:45:04;12;11.7;8
74426;PMS7003;62859;53.906;27.430;2024-02-26T09:50:02;13.8;13.3;9.8
74426;PMS7003;62859;53.906;27.430;2024-02-26T09:55:03;15.3;13.7;10.3
74426;PMS7003;62859;53.906;27.430;2024-02-26T10:00:03;13.7;13;11
74426;PMS7003;62859;53.906;27.430;2024-02-26T10:04:54;13;12;9.3
74426;PMS7003;62859;53.906;27.430;2024-02-26T10:10:03;11.7;11.3;8.3
74426;PMS7003;62859;53.906;27.430;2024-02-26T10:15:02;12;11;8.7
74426;PMS7003;62859;53.906;27.430;2024-02-26T10:19:44;11.7;10;8
74426;PMS7003;62859;53.906;27.430;2024-02-26T10:24:27;13.8;11.5;8.3
74426;PMS7003;62859;53.906;27.430;2024-02-26T10:30:05;10.7;10;7
74426;PMS7003;62859;53.906;27.430;2024-02-26T10:34:55;10.7;10;7
74426;PMS7003;62859;53.906;27.430;2024-02-26T10:40:05;9.3;8.7;6.3
74426;PMS7003;62859;53.906;27.430;2024-02-26T10:44:54;9.3;8.7;6.3
74426;PMS7003;62859;53.906;27.430;2024-02-26T10:49:55;11.3;10.3;7.7
74426;PMS7003;62859;53.906;27.430;2024-02-26T10:54:36;10.3;9;7.3
74426;PMS7003;62859;53.906;27.430;2024-02-26T10:59:55;11.8;10.8;7.3
74426;PMS7003;62859;53.906;27.430;2024-02-26T11:04:18;10.3;10;7.3
74426;PMS7003;62859;53.906;27.430;2024-02-26T11:09:26;13.7;12.7;9
74426;PMS7003;62859;53.906;27.430;2024-02-26T11:14:26;12;9.3;7.3
74426;PMS7003;62859;53.906;27.430;2024-02-26T11:20:04;14;12.3;7.7
74426;PMS7003;62859;53.906;27.430;2024-02-26T11:24:28;14;12.3;7.7
74426;PMS7003;62859;53.906;27.430;2024-02-26T11:29:19;10.7;10;6
74426;PMS7003;62859;53.906;27.430;2024-02-26T11:35:05;9.8;8.8;6.5
74426;PMS7003;62859;53.906;27.430;2024-02-26T11:39:18;9.8;8.8;6.5
74426;PMS7003;62859;53.906;27.430;2024-02-26T11:44:44;11.3;9.7;7
74426;PMS7003;62859;53.906;27.430;2024-02-26T11:49:34;11;10.3;7
74426;PMS7003;62859;53.906;27.430;2024-02-26T11:54:43;9;7.7;6
74426;PMS7003;62859;53.906;27.430;2024-02-26T11:59:37;12;10.8;7.3
74426;PMS7003;62859;53.906;27.430;2024-02-26T12:05:05;10.3;9.3;6.3
74426;PMS7003;62859;53.906;27.430;2024-02-26T12:09:59;10.3;9.3;6.3
74426;PMS7003;62859;53.906;27.430;2024-02-26T12:15:05;10.3;9.8;6.8
74426;PMS7003;62859;53.906;27.430;2024-02-26T12:19:22;10.3;9.8;6.8
74426;PMS7003;62859;53.906;27.430;2024-02-26T12:25:04;13;10.7;6.7
74426;PMS7003;62859;53.906;27.430;2024-02-26T12:29:18;13;10.7;6.7
74426;PMS7003;62859;53.906;27.430;2024-02-26T12:34:26;11.5;11;6.8
74426;PMS7003;62859;53.906;27.430;2024-02-26T12:39:34;11.3;9;6.7
74426;PMS7003;62859;53.906;27.430;2024-02-26T12:44:18;11.3;10.3;7.3
74426;PMS7003;62859;53.906;27.430;2024-02-26T12:49:18;10;8;5
74426;PMS7003;62859;53.906;27.430;2024-02-26T12:55:05;9.7;9;5
74426;PMS7003;62859;53.906;27.430;2024-02-26T12:59:54;9.7;9;5
74426;PMS7003;62859;53.906;27.430;2024-02-26T13:04:58;15.3;13.3;10
74426;PMS7003;62859;53.906;27.430;2024-02-26T13:10:05;16;13;9
74426;PMS7003;62859;53.906;27.430;2024-02-26T13:14:19;16;13;9
74426;PMS7003;62859;53.906;27.430;2024-02-26T13:19:52;10.7;9.7;7
74426;PMS7003;62859;53.906;27.430;2024-02-26T13:24:26;11;9;7.3
74426;PMS7003;62859;53.906;27.430;2024-02-26T13:29:44;11.7;9.7;7.7
74426;PMS7003;62859;53.906;27.430;2024-02-26T13:34:26;12.5;11;8.8
74426;PMS7003;62859;53.906;27.430;2024-02-26T13:39:54;12;11.3;8.7
74426;PMS7003;62859;53.906;27.430;2024-02-26T13:44:26;16.3;15.3;11.7
74426;PMS7003;62859;53.906;27.430;2024-02-26T13:49:58;14.3;12.7;10.7
74426;PMS7003;62859;53.906;27.430;2024-02-26T13:54:26;12.3;11;8
74426;PMS7003;62859;53.906;27.430;2024-02-26T14:00:05;14.3;12.3;9.7
74426;PMS7003;62859;53.906;27.430;2024-02-26T14:05:05;15.3;13.3;10.3
74426;PMS7003;62859;53.906;27.430;2024-02-26T14:09:26;15.3;13.3;10.3
74426;PMS7003;62859;53.906;27.430;2024-02-26T14:14:34;12.3;10.8;8
74426;PMS7003;62859;53.906;27.430;2024-02-26T14:19:26;20;18.3;15.3
74426;PMS7003;62859;53.906;27.430;2024-02-26T14:24:18;34.7;33.7;27.3
74426;PMS7003;62859;53.906;27.430;2024-02-26T14:29:18;23.5;21;17.8
74426;PMS7003;62859;53.906;27.430;2024-02-26T14:35:05;22;17.7;14.3
74426;PMS7003;62859;53.906;27.430;2024-02-26T14:39:18;22;17.7;14.3
74426;PMS7003;62859;53.906;27.430;2024-02-26T14:44:54;22.7;21;16
74426;PMS7003;62859;53.906;27.430;2024-02-26T14:49:36;26;25;21.5
74426;PMS7003;62859;53.906;27.430;2024-02-26T14:55:05;17.7;17;13.3
74426;PMS7003;62859;53.906;27.430;2024-02-26T14:59:34;17.7;17;13.3
74426;PMS7003;62859;53.906;27.430;2024-02-26T15:04:54;24;22.7;18.3
74426;PMS7003;62859;53.906;27.430;2024-02-26T15:09:32;27.8;27.3;22.3
74426;PMS7003;62859;53.906;27.430;2024-02-26T15:14:20;26;24.7;20.3
74426;PMS7003;62859;53.906;27.430;2024-02-26T15:19:40;19;18.3;15.3
74426;PMS7003;62859;53.906;27.430;2024-02-26T15:25:05;18.8;17.3;13.5
74426;PMS7003;62859;53.906;27.430;2024-02-26T15:29:22;18.8;17.3;13.5
74426;PMS7003;62859;53.906;27.430;2024-02-26T15:34:53;15.7;14.3;11.3
74426;PMS7003;62859;53.906;27.430;2024-02-26T15:40:05;14.3;13.3;10
74426;PMS7003;62859;53.906;27.430;2024-02-26T15:44:18;14.3;13.3;10
74426;PMS7003;62859;53.906;27.430;2024-02-26T15:50:05;18.7;15.7;11.7
74426;PMS7003;62859;53.906;27.430;2024-02-26T15:54:26;18.7;15.7;11.7
74426;PMS7003;62859;53.906;27.430;2024-02-26T15:59:26;26.3;23.7;19.7
74426;PMS7003;62859;53.906;27.430;2024-02-26T16:04:27;23.7;23;19
74426;PMS7003;62859;53.906;27.430;2024-02-26T16:09:34;25.5;24.5;17.8
74426;PMS7003;62859;53.906;27.430;2024-02-26T16:14:48;21.7;18.7;16.7
74426;PMS7003;62859;53.906;27.430;2024-02-26T16:19:47;16.7;15.7;12.7
74426;PMS7003;62859;53.906;27.430;2024-02-26T16:25:05;35.3;34;27.7
74426;PMS7003;62859;53.906;27.430;2024-02-26T16:29:57;35.3;34;27.7
74426;PMS7003;62859;53.906;27.430;2024-02-26T16:35:03;17;16.3;12
74426;PMS7003;62859;53.906;27.430;2024-02-26T16:39:35;31.3;29;23
74426;PMS7003;62859;53.906;27.430;2024-02-26T16:45:03;21.3;20.3;16
74426;PMS7003;62859;53.906;27.430;2024-02-26T16:50:01;17;15;11.7
74426;PMS7003;62859;53.906;27.430;2024-02-26T16:54:36;29.7;27.7;22.3
74426;PMS7003;62859;53.906;27.430;2024-02-26T17:00:03;23;22;17.7
74426;PMS7003;62859;53.906;27.430;2024-02-26T17:04:33;25;22.3;19.3
74426;PMS7003;62859;53.906;27.430;2024-02-26T17:09:53;25;22;16.7
74426;PMS7003;62859;53.906;27.430;2024-02-26T17:15:03;25.3;23.7;18.7
74426;PMS7003;62859;53.906;27.430;2024-02-26T17:19:29;29;28;23.3
74426;PMS7003;62859;53.906;27.430;2024-02-26T17:24:43;26.3;24.5;20.5
74426;PMS7003;62859;53.906;27.430;2024-02-26T17:29:45;29.3;27.7;23.7
74426;PMS7003;62859;53.906;27.430;2024-02-26T17:35:03;27;23.3;20.3
74426;PMS7003;62859;53.906;27.430;2024-02-26T17:39:33;24;23.7;18.3
74426;PMS7003;62859;53.906;27.430;2024-02-26T17:44:32;23.5;21.5;17.3
74426;PMS7003;62859;53.906;27.430;2024-02-26T17:49:27;22.7;22;18.3
74426;PMS7003;62859;53.906;27.430;2024-02-26T17:54:45;25;23.3;19.7
74426;PMS7003;62859;53.906;27.430;2024-02-26T17:59:53;23.3;22;17.3
74426;PMS7003;62859;53.906;27.430;2024-02-26T18:05:03;20.8;20;16.5
74426;PMS7003;62859;53.906;27.430;2024-02-26T18:10:03;27.7;24;20
74426;PMS7003;62859;53.906;27.430;2024-02-26T18:14:29;20;18.3;15
74426;PMS7003;62859;53.906;27.430;2024-02-26T18:20:03;19.7;19;13.3
74426;PMS7003;62859;53.906;27.430;2024-02-26T18:24:41;19.7;19;13.3
74426;PMS7003;62859;53.906;27.430;2024-02-26T18:29:41;18.7;16.3;12.7
74426;PMS7003;62859;53.906;27.430;2024-02-26T18:34:35;15.3;13.3;10.3
74426;PMS7003;62859;53.906;27.430;2024-02-26T18:40:03;16.7;14.7;12
74426;PMS7003;62859;53.906;27.430;2024-02-26T18:44:47;16.7;14.7;12
74426;PMS7003;62859;53.906;27.430;2024-02-26T18:50:03;22.7;18.3;15
74426;PMS7003;62859;53.906;27.430;2024-02-26T18:54:27;22.7;18.3;15
74426;PMS7003;62859;53.906;27.430;2024-02-26T18:59:53;20.5;19;15.5
74426;PMS7003;62859;53.906;27.430;2024-02-26T19:04:37;25.3;23.7;18.7
74426;PMS7003;62859;53.906;27.430;2024-02-26T19:09:35;25.3;22.3;19
74426;PMS7003;62859;53.906;27.430;2024-02-26T19:14:28;21;20;16.7
74426;PMS7003;62859;53.906;27.430;2024-02-26T19:19:19;24;21.3;17.5
74426;PMS7003;62859;53.906;27.430;2024-02-26T19:25:05;13.3;13.3;10
74426;PMS7003;62859;53.906;27.430;2024-02-26T19:30:05;20;18.3;15
74426;PMS7003;62859;53.906;27.430;2024-02-26T19:34:39;20;18.3;15
74426;PMS7003;62859;53.906;27.430;2024-02-26T19:39:27;21;19.3;15.7
74426;PMS7003;62859;53.906;27.430;2024-02-26T19:45:05;18.5;17.8;14.5
74426;PMS7003;62859;53.906;27.430;2024-02-26T19:49:19;18.5;17.8;14.5
74426;PMS7003;62859;53.906;27.430;2024-02-26T19:54:45;13.7;12.7;10.7
74426;PMS7003;62859;53.906;27.430;2024-02-26T19:59:27;22.3;20.7;17.3
74426;PMS7003;62859;53.906;27.430;2024-02-26T20:04:43;19.7;17.3;11.7
74426;PMS7003;62859;53.906;27.430;2024-02-26T20:09:27;16.8;16.8;11.8
74426;PMS7003;62859;53.906;27.430;2024-02-26T20:14:55;16;13.7;9
74426;PMS7003;62859;53.906;27.430;2024-02-26T20:19:19;19.7;16.3;13.3
74426;PMS7003;62859;53.906;27.430;2024-02-26T20:24:43;18;15;10.7
74426;PMS7003;62859;53.906;27.430;2024-02-26T20:29:25;16.3;15.3;10.8
74426;PMS7003;62859;53.906;27.430;2024-02-26T20:35:03;14.3;13.3;9.3
74426;PMS7003;62859;53.906;27.430;2024-02-26T20:40:04;16.7;15.3;11.3
74426;PMS7003;62859;53.906;27.430;2024-02-26T20:44:47;16.7;15.3;11.3
74426;PMS7003;62859;53.906;27.430;2024-02-26T20:49:19;18.3;14.8;11.3
74426;PMS7003;62859;53.906;27.430;2024-02-26T20:54:19;16;14;9.3
74426;PMS7003;62859;53.906;27.430;2024-02-26T20:59:27;15.3;13.3;8.7
74426;PMS7003;62859;53.906;27.430;2024-02-26T21:04:37;16;14.8;9.8
74426;PMS7003;62859;53.906;27.430;2024-02-26T21:10:05;18;15.7;9.7
74426;PMS7003;62859;53.906;27.430;2024-02-26T21:14:45;18;15.7;9.7
74426;PMS7003;62859;53.906;27.430;2024-02-26T21:19:29;25.3;23.7;18.3
74426;PMS7003;62859;53.906;27.430;2024-02-26T21:24:45;20.8;19;13.5
74426;PMS7003;62859;53.906;27.430;2024-02-26T21:30:05;26.3;21.7;16
74426;PMS7003;62859;53.906;27.430;2024-02-26T21:34:27;26.3;21.7;16
74426;PMS7003;62859;53.906;27.430;2024-02-26T21:39:55;21.3;19;15
74426;PMS7003;62859;53.906;27.430;2024-02-26T21:44:33;19.5;16.8;12.8
74426;PMS7003;62859;53.906;27.430;2024-02-26T21:49:47;19;18.7;15.7
74426;PMS7003;62859;53.906;27.430;2024-02-26T21:54:21;25.3;22.7;17.3
74426;PMS7003;62859;53.906;27.430;2024-02-26T21:59:21;24;21;17
74426;PMS7003;62859;53.906;27.430;2024-02-26T22:04:55;28.3;26;20.3
74426;PMS7003;62859;53.906;27.430;2024-02-26T22:10:05;26;22;16
74426;PMS7003;62859;53.906;27.430;2024-02-26T22:15:05;24.3;23;17
74426;PMS7003;62859;53.906;27.430;2024-02-26T22:19:19;24.3;23;17
74426;PMS7003;62859;53.906;27.430;2024-02-26T22:24:19;28.8;25;18.3
74426;PMS7003;62859;53.906;27.430;2024-02-26T22:29:45;27.7;25.3;18.7
74426;PMS7003;62859;53.906;27.430;2024-02-26T22:34:27;27;23.3;17.7
74426;PMS7003;62859;53.906;27.430;2024-02-26T22:39:19;25;21.3;15.3
74426;PMS7003;62859;53.906;27.430;2024-02-26T22:45:05;26.7;23.7;19
74426;PMS7003;62859;53.906;27.430;2024-02-26T22:49:45;26.7;23.7;19
74426;PMS7003;62859;53.906;27.430;2024-02-26T22:54:55;25.7;23;17
74426;PMS7003;62859;53.906;27.430;2024-02-26T22:59:19;22.3;21;17
74426;PMS7003;62859;53.906;27.430;2024-02-26T23:05:03;25;21;16.7
74426;PMS7003;62859;53.906;27.430;2024-02-26T23:10:03;23;20;16.3
74426;PMS7003;62859;53.906;27.430;2024-02-26T23:14:21;23;20;16.3
74426;PMS7003;62859;53.906;27.430;2024-02-26T23:20:05;22.7;21.7;16
74426;PMS7003;62859;53.906;27.430;2024-02-26T23:24:19;22.7;21.7;16
74426;PMS7003;62859;53.906;27.430;2024-02-26T23:30:03;22.7;20.7;15
74426;PMS7003;62859;53.906;27.430;2024-02-26T23:34:19;22.7;20.7;15
74426;PMS7003;62859;53.906;27.430;2024-02-26T23:39:19;24;22;17.8
74426;PMS7003;62859;53.906;27.430;2024-02-26T23:44:19;16;13;9
74426;PMS7003;62859;53.906;27.430;2024-02-26T23:49:19;18.7;15.3;10.7
74426;PMS7003;62859;53.906;27.430;2024-02-26T23:54:33;18.7;17.7;11
